Mark Zardes

Recruteur - New York City
21 Oct 2027
Jeudi
Processus

Personnalité

Adaptabilité (13) Ambition (13) Controverse (12) Loyauté (6) Pression (7) Professionnalisme (18) Sportivité (10) Tempérament (5)

Profil

Style d'entraînement Démocratique
Diplôme Continental A
Détermination 10
Gestion des joueurs 7
Motivation 11
Discipline 11
Satisfaction professionnelle
86%
Fatigue
0%
Rôle Recruteur
Salaire 103.5K p/s
Contrat 14.03.2028

Performance

Comportement Bon
Efficacité de l'entraînement
30%
Développement des joueurs
60%
Prévention des blessures
60%
Mise en place tactique
35%

Événements récents

A évalué un joueur maintenant
A participé à une réunion de recrutement maintenant
A recommandé une cible de transfert maintenant
A participé à une réunion de recrutement maintenant
A recommandé une cible de transfert maintenant
A recommandé une cible de transfert maintenant
A recommandé une cible de transfert maintenant
A recommandé une cible de transfert maintenant

Suivi en cours

156
Joueur Club Statut Capacité Confiance Observé Dernière observation Dernier vote
Christos Mouzakitis Hull City Actif 134 / 147 40% 6 18.10.2027 -
Olaniyi Saheed Kwara United Actif 91 / 100 40% 1 18.10.2027 -
Matthew Litherland Rotherham United Actif 113 / 123 40% 1 18.10.2027 -
Giovanni Leoni Bradford City Actif 143 / 143 40% 3 16.10.2027 -
Ricky Atletico Venezuela Actif 93 / 102 40% 1 16.10.2027 -
Ronan Kpakio Cardiff City Actif 119 / 128 40% 1 16.10.2027 -
Josh Nichols Tranmere Rovers Actif 114 / 121 40% 2 15.10.2027 -
David Damboama El-Kanemi Warriors Actif 91 / 86 40% 2 15.10.2027 -
Chris Rigg Sunderland Actif 141 / 147 40% 1 15.10.2027 -
Caleb Yirenkyi Coventry City Actif 145 / 149 40% 5 14.10.2027 -
Onuorah Onyedika Kun Khalifat Actif 81 / 80 40% 1 14.10.2027 -
Mikkel Hope Haugesund Actif 97 / 110 40% 1 14.10.2027 -
Trey Nyoni Rotherham United Actif 131 / 145 40% 2 12.10.2027 -
Hosea Michael Remo Stars Actif 86 / 98 40% 1 12.10.2027 -
Marvelous Freedom Ikorodu City Actif 83 / 97 40% 2 08.10.2027 -
Hervin Goyes Deportivo Pasto Actif 111 / 108 40% 1 08.10.2027 -
Juan Camilo Córdoba Deportivo Pereira Actif 88 / 92 40% 1 07.10.2027 -
Gift Udoh Ikorodu City Actif 95 / 89 40% 2 13.09.2027 -
Lucas Camejo River Plate Actif 84 / 92 40% 1 13.09.2027 -
Josh King Chelsea Actif 139 / 152 40% 5 11.09.2027 -
Luis Otávio Colorado Rapids Actif 103 / 120 40% 1 11.09.2027 -
Godwin Oham Warri Wolves Actif 88 / 90 40% 2 10.09.2027 -
Chibueze Oputa Rangers International Actif 80 / 88 40% 2 10.09.2027 -
Esteban de Lima Tacuarembo Actif 87 / 94 40% 1 10.09.2027 -
Ayden Heaven Luton Town Actif 146 / 150 40% 1 09.09.2027 -
Archie Gray Derby County Actif 143 / 154 40% 1 07.09.2027 -
Finley McAllister Grimsby Town Actif 92 / 98 40% 5 02.08.2027 -
Kazunari Kita Real Sociedad Actif 106 / 111 40% 3 02.08.2027 -
Keagan Tau Ajax Cape Town Actif 103 / 103 40% 2 26.07.2027 -
Jofre Torrents Ajax Actif 129 / 135 40% 1 26.07.2027 -
Anton Stach Leeds United Actif 153 / 153 40% 1 16.07.2027 -
Callum Doyle Wrexham Actif 132 / 137 40% 1 16.07.2027 -
Ousmane Diomande Nottingham Forest Actif 158 / 155 40% 1 16.07.2027 -
Pedro de la Vega FC Dallas Négociation 133 / 134 66% 1 08.07.2027 Approuver
Facundo Torres LOSC Lille Actif 134 / 134 67% 1 08.07.2027 Approuver
Konstantin Tyukavin Inter Négociation 132 / 133 66% 1 08.07.2027 Approuver
Stanislav Agkatsev Sunderland Négociation 132 / 133 66% 1 08.07.2027 Approuver
Luiz Henrique West Ham United Actif 142 / 143 68% 1 08.07.2027 Approuver
Bitello SC Freiburg Actif 135 / 135 68% 1 08.07.2027 Approuver
Lorent Tolaj Plymouth Argyle Actif 120 / 119 40% 1 07.07.2027 -
Thiago Brentford Actif 148 / 146 40% 1 07.07.2027 -
Themba Ngcobo SuperSport United Actif 120 / 115 40% 1 07.07.2027 -
Milan van Ewijk Mansfield Town Actif 139 / 130 40% 1 07.07.2027 -
Shea Charles Southampton Actif 137 / 143 40% 1 07.07.2027 -
Riley Owen Trento Actif 109 / 108 40% 3 06.07.2027 -
Edwin Asamoah Berekum Chelsea Actif 76 / 91 40% 1 04.07.2027 -
Daniel Dennis Ikorodu City Actif 85 / 103 40% 1 04.07.2027 -
Felix Afful Liberty Professionals Actif 91 / 85 40% 2 02.07.2027 -
Sascha Britschgi Padova Actif 122 / 133 40% 3 02.07.2027 -
Daniel Kelly Oxford United Actif 118 / 117 40% 5 01.07.2027 -
Davide Bartesaghi AC Milan Actif 129 / 140 40% 3 01.07.2027 -
Christ Inao Oulaï Fiorentina Actif 137 / 145 40% 3 28.06.2027 -
Lewis Miley Chelsea Actif 142 / 147 40% 3 28.06.2027 -
Ernie Weaver AFC Wimbledon Actif 109 / 119 40% 3 27.06.2027 -
Issa Yusuf Shooting Stars Actif 90 / 96 40% 1 27.06.2027 -
Jan Bürger Gillingham Actif 116 / 124 40% 3 26.06.2027 -
Fuzy Taylor Medeama Actif 72 / 84 40% 2 25.06.2027 -
Zane Albarus Cambridge United Actif 97 / 103 40% 2 23.06.2027 -
Josh Smith Accrington Stanley Actif 81 / 83 40% 1 23.06.2027 -
Joel Ezra Enyimba Actif 98 / 104 40% 4 20.06.2027 -
Joel McGregor Swindon Town Actif 94 / 97 40% 2 19.06.2027 -
Rivaldo Grobler Free State Stars Actif 95 / 100 40% 1 18.06.2027 -
Ezra Mayers West Ham United Actif 121 / 127 40% 1 16.06.2027 -
David Atiemo Liberty Professionals Actif 81 / 80 40% 1 15.06.2027 -
Johan Manzambi Newcastle United Actif 139 / 150 40% 2 10.06.2027 -
Adrien Truffert Bournemouth Actif 148 / 153 40% 5 12.02.2027 -
Ryan Sessegnon Fulham Actif 149 / 148 40% 4 12.02.2027 -
Jacques Ekomié Wrexham Actif 131 / 130 40% 1 12.02.2027 -
Dara O'Shea Ipswich Town Actif 136 / 133 40% 2 11.02.2027 -
Hamza Choudhury Leicester City Actif 126 / 123 40% 1 11.02.2027 -
Aidan Morris Middlesbrough Actif 127 / 127 40% 1 11.02.2027 -
Max Bird Birmingham Actif 128 / 133 40% 2 10.02.2027 -
Ethan Galbraith Swansea City Actif 128 / 134 40% 3 10.02.2027 -
Welington Southampton Actif 130 / 131 40% 1 10.02.2027 -
Ronald Swansea City Actif 127 / 127 40% 1 10.02.2027 -
Takehiro Tomiyasu Crystal Palace Actif 147 / 148 40% 1 08.02.2027 -
Brodie Spencer Oxford United Actif 119 / 124 40% 1 06.02.2027 -
Juanlu Bournemouth Actif 150 / 145 40% 1 06.02.2027 -
Saša Lukić Ipswich Town Actif 146 / 138 40% 2 05.02.2027 -
Óscar Mingueza Crystal Palace Actif 147 / 149 40% 3 05.02.2027 -
Antonee Robinson Fulham Actif 149 / 152 40% 1 05.02.2027 -
Teden Mengi Luton Town Actif 128 / 124 40% 2 02.02.2027 -
Anel Ahmedhodžić Burnley Actif 134 / 133 40% 1 02.02.2027 -
Yehor Yarmoliuk Brentford Actif 144 / 153 40% 1 02.02.2027 -
Williams Manyama SuperSport United Actif 121 / 117 40% 5 01.02.2027 -
Kristoffer Lund Birmingham Actif 129 / 124 40% 1 01.02.2027 -
Noah Sadiki Sunderland Actif 140 / 147 40% 1 01.02.2027 -
Quinten Timber Crystal Palace Actif 155 / 147 40% 3 28.01.2027 -
Florentino Luís Ipswich Town Actif 145 / 139 40% 1 28.01.2027 -
Luke McNally Bristol City Actif 129 / 130 40% 1 27.01.2027 -
Nicolás Fernández Mercau Shakhtar Actif 141 / 130 40% 8 26.01.2027 -
James Morris Leyton Orient Actif 118 / 113 40% 1 26.01.2027 -
Rico Lewis Manchester City Actif 151 / 152 40% 1 24.01.2027 -
Japhet Tanganga Sheffield United Actif 131 / 129 40% 1 24.01.2027 -
Imrân Louza Watford Actif 135 / 129 40% 1 22.01.2027 -
Tariq Lamptey Queens Park Rangers Actif 136 / 136 40% 1 22.01.2027 -
Tyler Adams Bournemouth Actif 152 / 152 40% 1 22.01.2027 -
Siyanda Msani University of Pretoria Actif 100 / 102 40% 1 21.01.2027 -
Thabiso Monyane Kaizer Chiefs Actif 104 / 102 40% 1 18.01.2027 -
Ayanda Jiyane Golden Arrows Actif 101 / 110 40% 1 18.01.2027 -
Christian Krasnodar Actif 140 / 138 40% 4 17.01.2027 -
Álex Centelles Levski Actif 133 / 120 40% 2 17.01.2027 -
Rubens Dinamo Moscow Actif 124 / 127 40% 2 16.01.2027 -
Khuliso Mudau Mamelodi Sundowns Actif 125 / 131 40% 4 15.01.2027 -
Victor Parada Spartak Moscow Actif 132 / 117 40% 2 15.01.2027 -
Rúben Neves Al-Hilal Actif 149 / 148 40% 1 15.01.2027 -
Erick Jali Black Aces Actif 110 / 109 40% 1 14.01.2027 -
Lucas Da Cunha Como Actif 143 / 142 40% 1 10.01.2027 -
Malebogo Modise Polokwane City Actif 101 / 101 40% 2 08.01.2027 -
Brooklyn Poggenpoel Maritzburg United Actif 115 / 109 40% 1 04.01.2027 -
Gift Ngcobo Ajax Cape Town Actif 130 / 132 40% 3 02.01.2027 -
Aubrey Modiba Mamelodi Sundowns Actif 121 / 127 40% 3 02.01.2027 -
Andile Manyama SuperSport United Actif 125 / 131 40% 1 02.01.2027 -
Nicolò Rovella Lazio Actif 155 / 154 40% 1 30.12.2026 -
Nuno Tavares Lazio Actif 142 / 147 40% 1 30.12.2026 -
Yves Bissouma Tottenham Actif 145 / 142 40% 3 24.12.2026 -
Mohamed Simakan Al-Nassr Actif 147 / 134 40% 1 22.12.2026 -
Bradley Tau SuperSport United Actif 132 / 124 40% 7 20.12.2026 -
Valentín Barco Chelsea Actif 137 / 146 40% 4 17.12.2026 -
Yacine Adli Al-Shabab Actif 136 / 141 40% 1 12.12.2026 -
Ilja Vakhania Krasnodar Actif 112 / 121 40% 1 08.12.2026 -
Jaïro Riedewald Sheffield United Actif 119 / 117 40% 1 08.12.2026 -
Nobel Mendy Hull City Actif 134 / 132 40% 5 05.12.2026 -
Mandla Erasmus SuperSport United Actif 120 / 116 40% 5 05.12.2026 -
João Gomes Aston Villa Actif 141 / 144 40% 5 05.12.2026 -
Gustavo Mantuan Zenit Actif 137 / 129 40% 2 03.12.2026 -
Caolan Boyd-Munce Wycombe Wanderers Actif 122 / 118 40% 3 01.12.2026 -
Alexandr Chernikov Krasnodar Actif 132 / 124 40% 1 30.11.2026 -
Nazareno Colombo Racing Club Actif 122 / 130 40% 1 25.11.2026 -
Leandro Lozano Boca Juniors Actif 119 / 123 40% 1 24.11.2026 -
Jack Currie Oxford United Actif 118 / 118 40% 1 24.11.2026 -
Max Conway Bolton Wanderers Actif 113 / 119 40% 1 24.11.2026 -
Maxim De Cuyper Brighton Actif 139 / 138 40% 4 23.11.2026 -
Nico Elvedi Leeds United Actif 137 / 137 40% 2 17.11.2026 -
Sergio Reguilón Inter Miami CF Actif 140 / 136 40% 2 17.11.2026 -
Femi Seriki Sheffield United Actif 130 / 124 40% 1 15.11.2026 -
Israel Reyes CSKA Moscow Actif 136 / 137 40% 1 13.11.2026 Plus d'infos
Conrad Wallem Austria Wien Actif 127 / 130 40% 3 06.11.2026 -
Odel Offiah Preston Actif 117 / 119 40% 1 03.11.2026 -
Obinna Nwobodo FC Cincinnati Actif 125 / 131 40% 1 30.09.2026 -
Joel Latibeaudiere Coventry City Actif 123 / 122 40% 1 27.09.2026 -
Andrés Herrera Columbus Crew Actif 117 / 117 40% 2 26.09.2026 -
Jake Davis Sporting Kansas City Actif 115 / 120 40% 1 26.09.2026 -
Facundo Mura Inter Miami CF Actif 127 / 120 40% 2 23.09.2026 -
Juan Manuel Sanabria Real Salt Lake Actif 129 / 125 40% 1 23.09.2026 -
Marcel Hartel St. Louis CITY SC Actif 133 / 128 40% 1 20.09.2026 -
Lasse Berg Johnsen Sporting Kansas City Actif 121 / 128 40% 1 17.09.2026 -
Thalente Mbatha Orlando Pirates Actif 114 / 121 40% 1 15.09.2026 -
Miles Robinson FC Cincinnati Actif 138 / 133 40% 1 12.09.2026 -
Costinha Brighton Actif 130 / 123 40% 1 12.09.2026 -
Anton Salétros Chicago Fire Actif 132 / 124 40% 1 09.09.2026 -
Eduard Löwen San Jose Earthquakes Actif 128 / 127 40% 1 08.09.2026 -
Fabián Paris Saint-Germain Actif 159 / 165 40% 1 07.09.2026 -
Hosei Kijima DC United Actif 100 / 109 79% 1 03.08.2026 Approuver
Frank Onyeka Coventry City Actif 135 / 135 40% 1 01.08.2026 -
Youri Tielemans Manchester United Actif 155 / 160 40% 1 01.08.2026 -